sensor_id;sensor_type;location;lat;lon;timestamp;P1;durP1;ratioP1;P2;durP2;ratioP2
4359;SDS011;2193;47.980;7.660;2022-12-29T00:01:28;2.73;;;1.80;;
4359;SDS011;2193;47.980;7.660;2022-12-29T00:03:53;2.53;;;1.97;;
4359;SDS011;2193;47.980;7.660;2022-12-29T00:06:18;4.17;;;2.10;;
4359;SDS011;2193;47.980;7.660;2022-12-29T00:08:43;2.77;;;2.00;;
4359;SDS011;2193;47.980;7.660;2022-12-29T00:11:10;3.10;;;2.00;;
4359;SDS011;2193;47.980;7.660;2022-12-29T00:13:36;3.53;;;1.87;;
4359;SDS011;2193;47.980;7.660;2022-12-29T00:16:20;2.43;;;1.87;;
4359;SDS011;2193;47.980;7.660;2022-12-29T00:18:45;2.43;;;1.80;;
4359;SDS011;2193;47.980;7.660;2022-12-29T00:21:14;2.50;;;1.80;;
4359;SDS011;2193;47.980;7.660;2022-12-29T00:23:58;4.80;;;1.57;;
4359;SDS011;2193;47.980;7.660;2022-12-29T00:26:55;1.93;;;1.70;;
4359;SDS011;2193;47.980;7.660;2022-12-29T00:29:40;4.00;;;1.43;;
4359;SDS011;2193;47.980;7.660;2022-12-29T00:32:24;2.63;;;1.50;;
4359;SDS011;2193;47.980;7.660;2022-12-29T00:35:08;4.10;;;1.80;;
4359;SDS011;2193;47.980;7.660;2022-12-29T00:37:35;3.87;;;1.50;;
4359;SDS011;2193;47.980;7.660;2022-12-29T00:40:21;1.63;;;1.10;;
4359;SDS011;2193;47.980;7.660;2022-12-29T00:43:06;1.83;;;1.37;;
4359;SDS011;2193;47.980;7.660;2022-12-29T00:45:50;5.27;;;1.43;;
4359;SDS011;2193;47.980;7.660;2022-12-29T00:48:15;4.63;;;1.60;;
4359;SDS011;2193;47.980;7.660;2022-12-29T00:51:00;2.07;;;1.40;;
4359;SDS011;2193;47.980;7.660;2022-12-29T00:53:25;3.93;;;1.20;;
4359;SDS011;2193;47.980;7.660;2022-12-29T00:55:51;1.97;;;1.40;;
4359;SDS011;2193;47.980;7.660;2022-12-29T00:58:16;5.00;;;1.43;;
4359;SDS011;2193;47.980;7.660;2022-12-29T01:00:41;4.67;;;1.43;;
4359;SDS011;2193;47.980;7.660;2022-12-29T01:03:06;3.70;;;1.30;;
4359;SDS011;2193;47.980;7.660;2022-12-29T01:05:35;3.40;;;1.40;;
4359;SDS011;2193;47.980;7.660;2022-12-29T01:08:00;6.33;;;1.87;;
4359;SDS011;2193;47.980;7.660;2022-12-29T01:10:25;3.57;;;1.50;;
4359;SDS011;2193;47.980;7.660;2022-12-29T01:12:50;3.93;;;1.37;;
4359;SDS011;2193;47.980;7.660;2022-12-29T01:15:16;1.67;;;1.37;;
4359;SDS011;2193;47.980;7.660;2022-12-29T01:17:41;3.67;;;1.47;;
4359;SDS011;2193;47.980;7.660;2022-12-29T01:20:07;1.53;;;1.40;;
4359;SDS011;2193;47.980;7.660;2022-12-29T01:22:32;1.90;;;1.50;;
4359;SDS011;2193;47.980;7.660;2022-12-29T01:24:57;4.17;;;1.90;;
4359;SDS011;2193;47.980;7.660;2022-12-29T01:27:22;1.47;;;1.37;;
4359;SDS011;2193;47.980;7.660;2022-12-29T01:29:48;3.90;;;1.47;;
4359;SDS011;2193;47.980;7.660;2022-12-29T01:32:13;3.67;;;1.30;;
4359;SDS011;2193;47.980;7.660;2022-12-29T01:34:38;2.20;;;1.30;;
4359;SDS011;2193;47.980;7.660;2022-12-29T01:37:03;2.70;;;1.23;;
4359;SDS011;2193;47.980;7.660;2022-12-29T01:39:28;3.63;;;1.47;;
4359;SDS011;2193;47.980;7.660;2022-12-29T01:41:53;1.70;;;1.40;;
4359;SDS011;2193;47.980;7.660;2022-12-29T01:47:02;2.90;;;1.57;;
4359;SDS011;2193;47.980;7.660;2022-12-29T01:49:28;2.23;;;1.20;;
4359;SDS011;2193;47.980;7.660;2022-12-29T01:51:55;1.87;;;1.40;;
4359;SDS011;2193;47.980;7.660;2022-12-29T01:54:26;3.60;;;1.50;;
4359;SDS011;2193;47.980;7.660;2022-12-29T01:56:53;2.30;;;1.70;;
4359;SDS011;2193;47.980;7.660;2022-12-29T01:59:20;3.97;;;1.30;;
4359;SDS011;2193;47.980;7.660;2022-12-29T02:01:47;1.93;;;1.37;;
4359;SDS011;2193;47.980;7.660;2022-12-29T02:04:12;3.43;;;1.67;;
4359;SDS011;2193;47.980;7.660;2022-12-29T02:06:40;1.70;;;1.40;;
4359;SDS011;2193;47.980;7.660;2022-12-29T02:09:06;3.67;;;1.37;;
4359;SDS011;2193;47.980;7.660;2022-12-29T02:11:32;3.53;;;1.40;;
4359;SDS011;2193;47.980;7.660;2022-12-29T02:13:57;2.10;;;1.73;;
4359;SDS011;2193;47.980;7.660;2022-12-29T02:24:08;2.97;;;2.00;;
4359;SDS011;2193;47.980;7.660;2022-12-29T02:26:47;4.10;;;1.63;;
4359;SDS011;2193;47.980;7.660;2022-12-29T02:29:24;4.23;;;1.80;;
4359;SDS011;2193;47.980;7.660;2022-12-29T02:31:59;3.30;;;1.60;;
4359;SDS011;2193;47.980;7.660;2022-12-29T02:34:31;4.30;;;1.40;;
4359;SDS011;2193;47.980;7.660;2022-12-29T02:40:26;4.30;;;2.20;;
4359;SDS011;2193;47.980;7.660;2022-12-29T02:45:06;1.63;;;1.50;;
4359;SDS011;2193;47.980;7.660;2022-12-29T02:47:41;4.90;;;1.73;;
4359;SDS011;2193;47.980;7.660;2022-12-29T02:50:15;2.07;;;1.50;;
4359;SDS011;2193;47.980;7.660;2022-12-29T02:52:52;3.70;;;1.90;;
4359;SDS011;2193;47.980;7.660;2022-12-29T02:55:19;2.90;;;2.10;;
4359;SDS011;2193;47.980;7.660;2022-12-29T02:57:44;2.30;;;1.80;;
4359;SDS011;2193;47.980;7.660;2022-12-29T03:00:10;2.33;;;1.70;;
4359;SDS011;2193;47.980;7.660;2022-12-29T03:05:37;3.60;;;1.93;;
4359;SDS011;2193;47.980;7.660;2022-12-29T03:10:57;4.37;;;2.20;;
4359;SDS011;2193;47.980;7.660;2022-12-29T03:13:26;2.07;;;1.83;;
4359;SDS011;2193;47.980;7.660;2022-12-29T03:21:29;7.00;;;2.30;;
4359;SDS011;2193;47.980;7.660;2022-12-29T03:24:16;6.17;;;2.20;;
4359;SDS011;2193;47.980;7.660;2022-12-29T03:26:42;8.10;;;1.90;;
4359;SDS011;2193;47.980;7.660;2022-12-29T03:29:10;3.17;;;2.07;;
4359;SDS011;2193;47.980;7.660;2022-12-29T03:31:36;4.10;;;1.90;;
4359;SDS011;2193;47.980;7.660;2022-12-29T03:34:02;2.77;;;2.20;;
4359;SDS011;2193;47.980;7.660;2022-12-29T03:39:12;2.87;;;2.00;;
4359;SDS011;2193;47.980;7.660;2022-12-29T03:41:40;6.40;;;2.00;;
4359;SDS011;2193;47.980;7.660;2022-12-29T03:44:06;4.63;;;2.10;;
4359;SDS011;2193;47.980;7.660;2022-12-29T03:46:31;3.23;;;1.90;;
4359;SDS011;2193;47.980;7.660;2022-12-29T03:48:57;4.23;;;2.00;;
4359;SDS011;2193;47.980;7.660;2022-12-29T03:51:22;3.53;;;1.90;;
4359;SDS011;2193;47.980;7.660;2022-12-29T03:53:47;2.00;;;1.80;;
4359;SDS011;2193;47.980;7.660;2022-12-29T03:56:12;3.60;;;1.93;;
4359;SDS011;2193;47.980;7.660;2022-12-29T03:58:38;3.40;;;1.83;;
4359;SDS011;2193;47.980;7.660;2022-12-29T04:01:03;3.20;;;1.90;;
4359;SDS011;2193;47.980;7.660;2022-12-29T04:03:28;2.33;;;1.97;;
4359;SDS011;2193;47.980;7.660;2022-12-29T04:05:53;8.70;;;2.00;;
4359;SDS011;2193;47.980;7.660;2022-12-29T04:08:18;2.47;;;2.27;;
4359;SDS011;2193;47.980;7.660;2022-12-29T04:10:44;8.53;;;2.60;;
4359;SDS011;2193;47.980;7.660;2022-12-29T04:13:09;7.10;;;2.60;;
4359;SDS011;2193;47.980;7.660;2022-12-29T04:15:34;5.20;;;2.80;;
4359;SDS011;2193;47.980;7.660;2022-12-29T04:17:59;4.77;;;2.20;;
4359;SDS011;2193;47.980;7.660;2022-12-29T04:20:24;12.07;;;3.30;;
4359;SDS011;2193;47.980;7.660;2022-12-29T04:23:08;2.87;;;2.10;;
4359;SDS011;2193;47.980;7.660;2022-12-29T04:25:34;3.00;;;1.93;;
4359;SDS011;2193;47.980;7.660;2022-12-29T04:27:59;5.67;;;1.97;;
4359;SDS011;2193;47.980;7.660;2022-12-29T04:30:24;1.97;;;1.77;;
4359;SDS011;2193;47.980;7.660;2022-12-29T04:32:50;3.70;;;2.07;;
4359;SDS011;2193;47.980;7.660;2022-12-29T04:35:15;4.77;;;2.43;;
4359;SDS011;2193;47.980;7.660;2022-12-29T04:37:40;2.73;;;2.10;;
4359;SDS011;2193;47.980;7.660;2022-12-29T04:40:05;3.57;;;2.30;;
4359;SDS011;2193;47.980;7.660;2022-12-29T04:42:31;3.37;;;2.00;;
4359;SDS011;2193;47.980;7.660;2022-12-29T04:44:56;9.77;;;3.10;;
4359;SDS011;2193;47.980;7.660;2022-12-29T04:47:21;3.40;;;2.33;;
4359;SDS011;2193;47.980;7.660;2022-12-29T04:49:46;4.17;;;2.40;;
4359;SDS011;2193;47.980;7.660;2022-12-29T04:52:11;6.63;;;2.30;;
4359;SDS011;2193;47.980;7.660;2022-12-29T04:54:37;2.73;;;2.10;;
4359;SDS011;2193;47.980;7.660;2022-12-29T04:57:02;4.60;;;2.47;;
4359;SDS011;2193;47.980;7.660;2022-12-29T04:59:27;2.83;;;2.47;;
4359;SDS011;2193;47.980;7.660;2022-12-29T05:01:52;5.90;;;2.60;;
4359;SDS011;2193;47.980;7.660;2022-12-29T05:04:17;5.53;;;2.80;;
4359;SDS011;2193;47.980;7.660;2022-12-29T05:06:43;10.03;;;3.30;;
4359;SDS011;2193;47.980;7.660;2022-12-29T05:09:08;4.60;;;2.50;;
4359;SDS011;2193;47.980;7.660;2022-12-29T05:11:33;5.40;;;2.50;;
4359;SDS011;2193;47.980;7.660;2022-12-29T05:13:58;4.00;;;3.00;;
4359;SDS011;2193;47.980;7.660;2022-12-29T05:16:23;4.20;;;2.63;;
4359;SDS011;2193;47.980;7.660;2022-12-29T05:18:48;5.00;;;2.80;;
4359;SDS011;2193;47.980;7.660;2022-12-29T05:21:14;5.20;;;2.90;;
4359;SDS011;2193;47.980;7.660;2022-12-29T05:23:39;3.13;;;2.40;;
4359;SDS011;2193;47.980;7.660;2022-12-29T05:26:04;4.30;;;2.40;;
4359;SDS011;2193;47.980;7.660;2022-12-29T05:28:29;4.33;;;2.63;;
4359;SDS011;2193;47.980;7.660;2022-12-29T05:30:54;2.70;;;2.30;;
4359;SDS011;2193;47.980;7.660;2022-12-29T05:33:20;4.17;;;2.80;;
4359;SDS011;2193;47.980;7.660;2022-12-29T05:35:45;3.40;;;2.50;;
4359;SDS011;2193;47.980;7.660;2022-12-29T05:38:10;5.50;;;2.97;;
4359;SDS011;2193;47.980;7.660;2022-12-29T05:40:35;3.80;;;2.73;;
4359;SDS011;2193;47.980;7.660;2022-12-29T05:43:01;3.77;;;2.67;;
4359;SDS011;2193;47.980;7.660;2022-12-29T05:45:26;4.00;;;2.37;;
4359;SDS011;2193;47.980;7.660;2022-12-29T05:47:51;2.90;;;2.33;;
4359;SDS011;2193;47.980;7.660;2022-12-29T05:50:16;5.30;;;2.90;;
4359;SDS011;2193;47.980;7.660;2022-12-29T05:52:41;3.23;;;2.23;;
4359;SDS011;2193;47.980;7.660;2022-12-29T05:55:07;3.90;;;2.37;;
4359;SDS011;2193;47.980;7.660;2022-12-29T05:57:32;3.90;;;2.60;;
4359;SDS011;2193;47.980;7.660;2022-12-29T05:59:57;5.63;;;1.93;;
4359;SDS011;2193;47.980;7.660;2022-12-29T06:02:22;3.27;;;2.50;;
4359;SDS011;2193;47.980;7.660;2022-12-29T06:04:48;2.90;;;2.60;;
4359;SDS011;2193;47.980;7.660;2022-12-29T06:07:13;3.20;;;2.10;;
4359;SDS011;2193;47.980;7.660;2022-12-29T06:09:38;3.30;;;2.20;;
4359;SDS011;2193;47.980;7.660;2022-12-29T06:12:03;4.40;;;1.97;;
4359;SDS011;2193;47.980;7.660;2022-12-29T06:14:29;4.77;;;2.33;;
4359;SDS011;2193;47.980;7.660;2022-12-29T06:16:54;4.17;;;2.40;;
4359;SDS011;2193;47.980;7.660;2022-12-29T06:19:19;3.50;;;2.60;;
4359;SDS011;2193;47.980;7.660;2022-12-29T06:21:44;3.47;;;2.40;;
4359;SDS011;2193;47.980;7.660;2022-12-29T06:24:09;9.57;;;2.90;;
4359;SDS011;2193;47.980;7.660;2022-12-29T06:26:35;2.33;;;2.13;;
4359;SDS011;2193;47.980;7.660;2022-12-29T06:29:01;2.20;;;2.00;;
4359;SDS011;2193;47.980;7.660;2022-12-29T06:31:27;5.20;;;2.17;;
4359;SDS011;2193;47.980;7.660;2022-12-29T06:33:52;4.30;;;1.80;;
4359;SDS011;2193;47.980;7.660;2022-12-29T06:36:18;3.80;;;1.87;;
4359;SDS011;2193;47.980;7.660;2022-12-29T06:38:43;2.60;;;1.90;;
4359;SDS011;2193;47.980;7.660;2022-12-29T06:41:08;2.87;;;2.03;;
4359;SDS011;2193;47.980;7.660;2022-12-29T06:43:33;2.00;;;1.60;;
4359;SDS011;2193;47.980;7.660;2022-12-29T06:46:00;3.27;;;2.00;;
4359;SDS011;2193;47.980;7.660;2022-12-29T06:48:26;6.27;;;2.00;;
4359;SDS011;2193;47.980;7.660;2022-12-29T06:50:51;3.10;;;1.63;;
4359;SDS011;2193;47.980;7.660;2022-12-29T06:53:16;3.37;;;2.00;;
4359;SDS011;2193;47.980;7.660;2022-12-29T06:55:41;2.77;;;2.10;;
4359;SDS011;2193;47.980;7.660;2022-12-29T06:58:07;3.97;;;1.80;;
4359;SDS011;2193;47.980;7.660;2022-12-29T07:00:32;4.20;;;1.83;;
4359;SDS011;2193;47.980;7.660;2022-12-29T07:02:57;6.20;;;1.77;;
4359;SDS011;2193;47.980;7.660;2022-12-29T07:05:23;4.10;;;2.07;;
4359;SDS011;2193;47.980;7.660;2022-12-29T07:07:49;2.90;;;2.27;;
4359;SDS011;2193;47.980;7.660;2022-12-29T07:10:15;4.67;;;2.30;;
4359;SDS011;2193;47.980;7.660;2022-12-29T07:12:40;4.70;;;2.40;;
4359;SDS011;2193;47.980;7.660;2022-12-29T07:15:05;3.27;;;2.00;;
4359;SDS011;2193;47.980;7.660;2022-12-29T07:17:30;3.43;;;2.20;;
4359;SDS011;2193;47.980;7.660;2022-12-29T07:19:56;4.17;;;2.23;;
4359;SDS011;2193;47.980;7.660;2022-12-29T07:22:21;1.80;;;1.70;;
4359;SDS011;2193;47.980;7.660;2022-12-29T07:24:46;3.90;;;2.10;;
4359;SDS011;2193;47.980;7.660;2022-12-29T07:27:11;4.17;;;2.10;;
4359;SDS011;2193;47.980;7.660;2022-12-29T07:29:37;2.23;;;1.97;;
4359;SDS011;2193;47.980;7.660;2022-12-29T07:32:02;2.13;;;1.87;;
4359;SDS011;2193;47.980;7.660;2022-12-29T07:34:27;4.13;;;2.03;;
4359;SDS011;2193;47.980;7.660;2022-12-29T07:36:52;4.03;;;2.30;;
4359;SDS011;2193;47.980;7.660;2022-12-29T07:39:18;4.40;;;1.90;;
4359;SDS011;2193;47.980;7.660;2022-12-29T07:41:43;3.57;;;1.90;;
4359;SDS011;2193;47.980;7.660;2022-12-29T07:44:08;3.10;;;2.10;;
4359;SDS011;2193;47.980;7.660;2022-12-29T07:46:33;3.23;;;1.60;;
4359;SDS011;2193;47.980;7.660;2022-12-29T07:48:58;2.20;;;1.97;;
4359;SDS011;2193;47.980;7.660;2022-12-29T07:51:23;3.10;;;1.67;;
4359;SDS011;2193;47.980;7.660;2022-12-29T07:53:49;5.80;;;2.37;;
4359;SDS011;2193;47.980;7.660;2022-12-29T07:56:14;2.60;;;2.07;;
4359;SDS011;2193;47.980;7.660;2022-12-29T07:58:39;4.63;;;1.83;;
4359;SDS011;2193;47.980;7.660;2022-12-29T08:01:04;1.87;;;1.60;;
4359;SDS011;2193;47.980;7.660;2022-12-29T08:03:30;3.77;;;2.47;;
4359;SDS011;2193;47.980;7.660;2022-12-29T08:05:56;2.37;;;1.80;;
4359;SDS011;2193;47.980;7.660;2022-12-29T08:08:21;3.70;;;2.03;;
4359;SDS011;2193;47.980;7.660;2022-12-29T08:10:46;5.00;;;2.47;;
4359;SDS011;2193;47.980;7.660;2022-12-29T08:13:11;5.00;;;1.90;;
4359;SDS011;2193;47.980;7.660;2022-12-29T08:15:37;4.60;;;2.07;;
4359;SDS011;2193;47.980;7.660;2022-12-29T08:18:02;2.07;;;1.90;;
4359;SDS011;2193;47.980;7.660;2022-12-29T08:20:27;2.43;;;1.90;;
4359;SDS011;2193;47.980;7.660;2022-12-29T08:22:53;2.40;;;1.83;;
4359;SDS011;2193;47.980;7.660;2022-12-29T08:25:18;6.87;;;1.80;;
4359;SDS011;2193;47.980;7.660;2022-12-29T08:27:44;3.23;;;1.70;;
4359;SDS011;2193;47.980;7.660;2022-12-29T08:30:09;2.63;;;1.87;;
4359;SDS011;2193;47.980;7.660;2022-12-29T08:32:35;6.37;;;2.00;;
4359;SDS011;2193;47.980;7.660;2022-12-29T08:35:00;4.17;;;2.10;;
4359;SDS011;2193;47.980;7.660;2022-12-29T08:37:25;4.63;;;1.83;;
4359;SDS011;2193;47.980;7.660;2022-12-29T08:39:50;4.17;;;1.80;;
4359;SDS011;2193;47.980;7.660;2022-12-29T08:42:16;2.70;;;1.70;;
4359;SDS011;2193;47.980;7.660;2022-12-29T08:44:41;3.53;;;1.70;;
4359;SDS011;2193;47.980;7.660;2022-12-29T08:47:06;5.13;;;2.17;;
4359;SDS011;2193;47.980;7.660;2022-12-29T08:49:31;2.67;;;1.50;;
4359;SDS011;2193;47.980;7.660;2022-12-29T08:51:58;2.77;;;1.60;;
4359;SDS011;2193;47.980;7.660;2022-12-29T08:54:23;3.20;;;1.50;;
4359;SDS011;2193;47.980;7.660;2022-12-29T08:56:48;2.87;;;1.83;;
4359;SDS011;2193;47.980;7.660;2022-12-29T08:59:13;6.20;;;1.90;;
4359;SDS011;2193;47.980;7.660;2022-12-29T09:01:39;4.70;;;1.40;;
4359;SDS011;2193;47.980;7.660;2022-12-29T09:04:05;1.70;;;1.60;;
4359;SDS011;2193;47.980;7.660;2022-12-29T09:06:30;6.30;;;1.60;;
4359;SDS011;2193;47.980;7.660;2022-12-29T09:08:55;1.70;;;1.60;;
4359;SDS011;2193;47.980;7.660;2022-12-29T09:11:22;3.63;;;1.60;;
4359;SDS011;2193;47.980;7.660;2022-12-29T09:13:48;2.97;;;2.47;;
4359;SDS011;2193;47.980;7.660;2022-12-29T09:16:13;1.80;;;1.70;;
4359;SDS011;2193;47.980;7.660;2022-12-29T09:18:39;5.93;;;1.97;;
4359;SDS011;2193;47.980;7.660;2022-12-29T09:21:05;3.20;;;1.90;;
4359;SDS011;2193;47.980;7.660;2022-12-29T09:23:30;2.63;;;1.90;;
4359;SDS011;2193;47.980;7.660;2022-12-29T09:25:56;3.73;;;1.80;;
4359;SDS011;2193;47.980;7.660;2022-12-29T09:28:21;2.67;;;1.90;;
4359;SDS011;2193;47.980;7.660;2022-12-29T09:30:47;3.20;;;1.90;;
4359;SDS011;2193;47.980;7.660;2022-12-29T09:33:12;3.60;;;2.10;;
4359;SDS011;2193;47.980;7.660;2022-12-29T09:35:41;5.10;;;2.00;;
4359;SDS011;2193;47.980;7.660;2022-12-29T09:38:06;4.53;;;1.70;;
4359;SDS011;2193;47.980;7.660;2022-12-29T09:40:32;2.30;;;1.57;;
4359;SDS011;2193;47.980;7.660;2022-12-29T09:45:27;3.70;;;2.03;;
4359;SDS011;2193;47.980;7.660;2022-12-29T09:47:55;12.03;;;2.13;;
4359;SDS011;2193;47.980;7.660;2022-12-29T09:50:30;3.23;;;2.00;;
4359;SDS011;2193;47.980;7.660;2022-12-29T09:55:23;2.07;;;1.90;;
4359;SDS011;2193;47.980;7.660;2022-12-29T10:00:27;4.00;;;1.93;;
4359;SDS011;2193;47.980;7.660;2022-12-29T10:02:58;4.67;;;2.10;;
4359;SDS011;2193;47.980;7.660;2022-12-29T10:07:52;2.97;;;2.10;;
4359;SDS011;2193;47.980;7.660;2022-12-29T10:23:19;5.93;;;2.40;;
4359;SDS011;2193;47.980;7.660;2022-12-29T10:25:47;5.13;;;2.50;;
4359;SDS011;2193;47.980;7.660;2022-12-29T10:28:23;4.17;;;2.47;;
4359;SDS011;2193;47.980;7.660;2022-12-29T10:30:49;5.00;;;2.20;;
4359;SDS011;2193;47.980;7.660;2022-12-29T10:33:18;4.50;;;2.57;;
4359;SDS011;2193;47.980;7.660;2022-12-29T10:35:44;3.27;;;2.07;;
4359;SDS011;2193;47.980;7.660;2022-12-29T10:40:53;7.47;;;4.37;;
4359;SDS011;2193;47.980;7.660;2022-12-29T10:45:49;14.33;;;5.97;;
4359;SDS011;2193;47.980;7.660;2022-12-29T10:48:19;6.37;;;2.33;;
4359;SDS011;2193;47.980;7.660;2022-12-29T10:50:47;6.20;;;3.03;;
4359;SDS011;2193;47.980;7.660;2022-12-29T10:53:15;4.20;;;2.40;;
4359;SDS011;2193;47.980;7.660;2022-12-29T10:55:42;4.80;;;2.50;;
4359;SDS011;2193;47.980;7.660;2022-12-29T10:58:10;6.57;;;2.80;;
4359;SDS011;2193;47.980;7.660;2022-12-29T11:00:36;4.50;;;2.10;;
4359;SDS011;2193;47.980;7.660;2022-12-29T11:05:36;3.37;;;2.07;;
4359;SDS011;2193;47.980;7.660;2022-12-29T11:08:03;5.57;;;2.07;;
4359;SDS011;2193;47.980;7.660;2022-12-29T11:12:58;3.20;;;1.90;;
4359;SDS011;2193;47.980;7.660;2022-12-29T11:15:24;4.10;;;2.10;;
4359;SDS011;2193;47.980;7.660;2022-12-29T11:18:17;6.40;;;2.53;;
4359;SDS011;2193;47.980;7.660;2022-12-29T11:20:38;3.57;;;2.00;;
4359;SDS011;2193;47.980;7.660;2022-12-29T11:23:04;4.27;;;2.03;;
4359;SDS011;2193;47.980;7.660;2022-12-29T11:25:30;1.83;;;1.73;;
4359;SDS011;2193;47.980;7.660;2022-12-29T11:30:24;5.23;;;2.17;;
4359;SDS011;2193;47.980;7.660;2022-12-29T11:32:51;2.23;;;1.87;;
4359;SDS011;2193;47.980;7.660;2022-12-29T11:35:37;8.20;;;2.50;;
4359;SDS011;2193;47.980;7.660;2022-12-29T11:38:03;3.03;;;2.07;;
4359;SDS011;2193;47.980;7.660;2022-12-29T11:40:29;3.60;;;2.00;;
4359;SDS011;2193;47.980;7.660;2022-12-29T11:42:57;2.80;;;1.80;;
4359;SDS011;2193;47.980;7.660;2022-12-29T11:45:28;1.60;;;1.50;;
4359;SDS011;2193;47.980;7.660;2022-12-29T11:47:57;5.13;;;1.70;;
4359;SDS011;2193;47.980;7.660;2022-12-29T11:50:24;3.90;;;1.93;;
4359;SDS011;2193;47.980;7.660;2022-12-29T11:52:57;3.97;;;1.67;;
4359;SDS011;2193;47.980;7.660;2022-12-29T11:55:23;2.47;;;2.00;;
4359;SDS011;2193;47.980;7.660;2022-12-29T11:57:50;2.83;;;1.97;;
4359;SDS011;2193;47.980;7.660;2022-12-29T12:00:18;3.30;;;2.23;;
4359;SDS011;2193;47.980;7.660;2022-12-29T12:02:48;2.43;;;1.77;;
4359;SDS011;2193;47.980;7.660;2022-12-29T12:07:43;3.03;;;1.80;;
4359;SDS011;2193;47.980;7.660;2022-12-29T12:10:27;3.63;;;1.90;;
4359;SDS011;2193;47.980;7.660;2022-12-29T12:15:36;4.93;;;2.43;;
4359;SDS011;2193;47.980;7.660;2022-12-29T12:18:05;4.40;;;1.80;;
4359;SDS011;2193;47.980;7.660;2022-12-29T12:23:19;2.00;;;1.90;;
4359;SDS011;2193;47.980;7.660;2022-12-29T12:25:54;5.10;;;1.80;;
4359;SDS011;2193;47.980;7.660;2022-12-29T12:28:25;4.17;;;2.30;;
4359;SDS011;2193;47.980;7.660;2022-12-29T12:30:52;3.83;;;1.93;;
4359;SDS011;2193;47.980;7.660;2022-12-29T12:41:07;4.03;;;2.13;;
4359;SDS011;2193;47.980;7.660;2022-12-29T12:43:44;7.30;;;2.63;;
4359;SDS011;2193;47.980;7.660;2022-12-29T12:52:01;5.90;;;2.03;;
4359;SDS011;2193;47.980;7.660;2022-12-29T13:00:02;3.53;;;2.00;;
4359;SDS011;2193;47.980;7.660;2022-12-29T13:15:53;3.53;;;2.03;;
4359;SDS011;2193;47.980;7.660;2022-12-29T13:20:57;4.40;;;2.03;;
4359;SDS011;2193;47.980;7.660;2022-12-29T13:28:29;3.83;;;2.47;;
4359;SDS011;2193;47.980;7.660;2022-12-29T13:31:00;6.37;;;2.03;;
4359;SDS011;2193;47.980;7.660;2022-12-29T13:36:27;2.50;;;2.00;;
4359;SDS011;2193;47.980;7.660;2022-12-29T13:38:59;6.57;;;2.27;;
4359;SDS011;2193;47.980;7.660;2022-12-29T13:41:28;4.10;;;2.10;;
4359;SDS011;2193;47.980;7.660;2022-12-29T13:43:55;3.63;;;1.67;;
4359;SDS011;2193;47.980;7.660;2022-12-29T13:46:24;3.63;;;2.07;;
4359;SDS011;2193;47.980;7.660;2022-12-29T13:48:58;2.00;;;1.80;;
4359;SDS011;2193;47.980;7.660;2022-12-29T13:51:25;6.47;;;1.73;;
4359;SDS011;2193;47.980;7.660;2022-12-29T13:56:29;6.07;;;2.83;;
4359;SDS011;2193;47.980;7.660;2022-12-29T14:01:31;4.53;;;2.43;;
4359;SDS011;2193;47.980;7.660;2022-12-29T14:03:59;3.20;;;2.00;;
4359;SDS011;2193;47.980;7.660;2022-12-29T14:06:29;3.30;;;2.07;;
4359;SDS011;2193;47.980;7.660;2022-12-29T14:09:04;8.10;;;2.30;;
4359;SDS011;2193;47.980;7.660;2022-12-29T14:13:56;4.33;;;2.37;;
4359;SDS011;2193;47.980;7.660;2022-12-29T14:16:25;4.60;;;2.23;;
4359;SDS011;2193;47.980;7.660;2022-12-29T14:18:50;6.17;;;2.43;;
4359;SDS011;2193;47.980;7.660;2022-12-29T14:23:42;5.67;;;2.60;;
4359;SDS011;2193;47.980;7.660;2022-12-29T14:28:49;5.10;;;2.67;;
4359;SDS011;2193;47.980;7.660;2022-12-29T14:33:39;3.77;;;2.63;;
4359;SDS011;2193;47.980;7.660;2022-12-29T14:36:21;4.60;;;2.60;;
4359;SDS011;2193;47.980;7.660;2022-12-29T14:38:50;4.57;;;2.47;;
4359;SDS011;2193;47.980;7.660;2022-12-29T14:41:16;4.70;;;2.17;;
4359;SDS011;2193;47.980;7.660;2022-12-29T14:43:51;4.40;;;2.37;;
4359;SDS011;2193;47.980;7.660;2022-12-29T14:46:17;4.47;;;2.57;;
4359;SDS011;2193;47.980;7.660;2022-12-29T14:48:42;1.90;;;1.77;;
4359;SDS011;2193;47.980;7.660;2022-12-29T14:53:52;4.13;;;2.93;;
4359;SDS011;2193;47.980;7.660;2022-12-29T14:56:18;4.73;;;2.17;;
4359;SDS011;2193;47.980;7.660;2022-12-29T15:03:54;5.77;;;2.33;;
4359;SDS011;2193;47.980;7.660;2022-12-29T15:06:21;7.00;;;2.60;;
4359;SDS011;2193;47.980;7.660;2022-12-29T15:08:56;4.60;;;2.40;;
4359;SDS011;2193;47.980;7.660;2022-12-29T15:11:31;8.20;;;2.80;;
4359;SDS011;2193;47.980;7.660;2022-12-29T15:14:28;2.63;;;2.40;;
4359;SDS011;2193;47.980;7.660;2022-12-29T15:16:53;7.50;;;2.27;;
4359;SDS011;2193;47.980;7.660;2022-12-29T15:19:22;2.60;;;2.00;;
4359;SDS011;2193;47.980;7.660;2022-12-29T15:21:47;4.20;;;2.50;;
4359;SDS011;2193;47.980;7.660;2022-12-29T15:24:13;2.50;;;2.30;;
4359;SDS011;2193;47.980;7.660;2022-12-29T15:26:40;5.77;;;2.23;;
4359;SDS011;2193;47.980;7.660;2022-12-29T15:29:05;6.50;;;2.83;;
4359;SDS011;2193;47.980;7.660;2022-12-29T15:31:30;5.53;;;2.53;;
4359;SDS011;2193;47.980;7.660;2022-12-29T15:34:07;3.40;;;2.40;;
4359;SDS011;2193;47.980;7.660;2022-12-29T15:36:38;6.83;;;2.37;;
4359;SDS011;2193;47.980;7.660;2022-12-29T15:39:19;4.43;;;2.40;;
4359;SDS011;2193;47.980;7.660;2022-12-29T15:41:50;4.87;;;2.50;;
4359;SDS011;2193;47.980;7.660;2022-12-29T15:44:40;4.83;;;2.67;;
4359;SDS011;2193;47.980;7.660;2022-12-29T15:47:17;4.07;;;2.53;;
4359;SDS011;2193;47.980;7.660;2022-12-29T15:49:43;9.63;;;3.07;;
4359;SDS011;2193;47.980;7.660;2022-12-29T15:52:10;2.97;;;2.70;;
4359;SDS011;2193;47.980;7.660;2022-12-29T15:54:35;7.60;;;2.50;;
4359;SDS011;2193;47.980;7.660;2022-12-29T15:57:01;5.80;;;3.00;;
4359;SDS011;2193;47.980;7.660;2022-12-29T15:59:27;5.20;;;2.57;;
4359;SDS011;2193;47.980;7.660;2022-12-29T16:01:53;4.03;;;2.50;;
4359;SDS011;2193;47.980;7.660;2022-12-29T16:04:19;5.67;;;2.80;;
4359;SDS011;2193;47.980;7.660;2022-12-29T16:06:53;4.53;;;2.80;;
4359;SDS011;2193;47.980;7.660;2022-12-29T16:09:28;4.37;;;2.70;;
4359;SDS011;2193;47.980;7.660;2022-12-29T16:11:54;8.70;;;2.47;;
4359;SDS011;2193;47.980;7.660;2022-12-29T16:14:29;5.23;;;2.57;;
4359;SDS011;2193;47.980;7.660;2022-12-29T16:16:56;5.43;;;2.90;;
4359;SDS011;2193;47.980;7.660;2022-12-29T16:21:50;3.33;;;3.03;;
4359;SDS011;2193;47.980;7.660;2022-12-29T16:24:17;6.50;;;3.33;;
4359;SDS011;2193;47.980;7.660;2022-12-29T16:26:46;5.57;;;2.83;;
4359;SDS011;2193;47.980;7.660;2022-12-29T16:29:12;4.33;;;2.70;;
4359;SDS011;2193;47.980;7.660;2022-12-29T16:31:54;6.33;;;2.60;;
4359;SDS011;2193;47.980;7.660;2022-12-29T16:34:42;3.57;;;2.53;;
4359;SDS011;2193;47.980;7.660;2022-12-29T16:39:51;13.73;;;5.90;;
4359;SDS011;2193;47.980;7.660;2022-12-29T16:42:35;5.87;;;3.80;;
4359;SDS011;2193;47.980;7.660;2022-12-29T16:47:47;3.53;;;2.70;;
4359;SDS011;2193;47.980;7.660;2022-12-29T16:50:15;5.23;;;2.57;;
4359;SDS011;2193;47.980;7.660;2022-12-29T16:52:41;6.97;;;1.90;;
4359;SDS011;2193;47.980;7.660;2022-12-29T16:55:14;6.63;;;2.37;;
4359;SDS011;2193;47.980;7.660;2022-12-29T16:57:40;4.43;;;2.10;;
4359;SDS011;2193;47.980;7.660;2022-12-29T17:00:16;2.23;;;1.70;;
4359;SDS011;2193;47.980;7.660;2022-12-29T17:02:42;3.50;;;1.83;;
4359;SDS011;2193;47.980;7.660;2022-12-29T17:05:13;2.37;;;2.00;;
4359;SDS011;2193;47.980;7.660;2022-12-29T17:07:38;3.97;;;2.10;;
4359;SDS011;2193;47.980;7.660;2022-12-29T17:10:04;3.90;;;2.30;;
4359;SDS011;2193;47.980;7.660;2022-12-29T17:12:29;7.80;;;2.37;;
4359;SDS011;2193;47.980;7.660;2022-12-29T17:15:05;6.00;;;2.37;;
4359;SDS011;2193;47.980;7.660;2022-12-29T17:20:13;3.57;;;2.33;;
4359;SDS011;2193;47.980;7.660;2022-12-29T17:22:39;3.80;;;2.10;;
4359;SDS011;2193;47.980;7.660;2022-12-29T17:25:04;3.20;;;2.17;;
4359;SDS011;2193;47.980;7.660;2022-12-29T17:27:36;5.37;;;2.30;;
4359;SDS011;2193;47.980;7.660;2022-12-29T17:32:34;3.33;;;2.37;;
4359;SDS011;2193;47.980;7.660;2022-12-29T17:34:59;3.30;;;2.20;;
4359;SDS011;2193;47.980;7.660;2022-12-29T17:37:29;6.13;;;2.67;;
4359;SDS011;2193;47.980;7.660;2022-12-29T17:39:54;4.50;;;2.60;;
4359;SDS011;2193;47.980;7.660;2022-12-29T17:42:19;5.70;;;3.80;;
4359;SDS011;2193;47.980;7.660;2022-12-29T17:44:45;6.93;;;3.93;;
4359;SDS011;2193;47.980;7.660;2022-12-29T17:47:10;6.70;;;3.27;;
4359;SDS011;2193;47.980;7.660;2022-12-29T17:49:36;6.83;;;3.80;;
4359;SDS011;2193;47.980;7.660;2022-12-29T17:52:01;5.40;;;4.13;;